createdAt,value
2022-12-14T00:03:55.766Z,57.93
2022-12-14T00:09:00.638Z,58.20
2022-12-14T00:14:04.500Z,57.62
2022-12-14T00:19:06.873Z,57.89
2022-12-14T00:24:09.545Z,58.19
2022-12-14T00:29:12.228Z,57.65
2022-12-14T00:34:14.788Z,57.66
2022-12-14T00:39:17.991Z,58.24
2022-12-14T00:44:20.398Z,57.92
2022-12-14T00:49:22.709Z,58.27
2022-12-14T00:54:25.006Z,58.59
2022-12-14T00:59:27.790Z,58.52
2022-12-14T01:04:30.436Z,58.18
2022-12-14T01:09:32.720Z,59.07
2022-12-14T01:14:35.107Z,59.20
2022-12-14T01:19:37.486Z,59.29
2022-12-14T01:24:40.071Z,59.81
2022-12-14T01:29:42.285Z,59.96
2022-12-14T01:34:44.497Z,60.48
2022-12-14T01:39:47.753Z,60.73
2022-12-14T01:44:56.001Z,61.21
2022-12-14T01:50:11.517Z,61.86
2022-12-14T01:55:29.756Z,62.66
2022-12-14T02:00:32.544Z,62.68
2022-12-14T02:05:38.069Z,63.15
2022-12-14T02:10:40.510Z,63.64
2022-12-14T02:15:43.642Z,63.83
2022-12-14T02:21:06.009Z,63.99
2022-12-14T02:26:23.557Z,64.54
2022-12-14T02:31:43.735Z,64.07
2022-12-14T02:37:00.748Z,63.62
2022-12-14T02:42:25.085Z,63.91
2022-12-14T02:47:46.934Z,63.65
2022-12-14T02:53:10.284Z,63.11
2022-12-14T02:58:21.813Z,63.49
2022-12-14T03:03:24.532Z,62.99
2022-12-14T03:08:30.106Z,62.90
2022-12-14T03:13:44.273Z,63.15
2022-12-14T03:19:16.162Z,62.67
2022-12-14T03:24:26.007Z,63.06
2022-12-14T03:29:37.790Z,62.24
2022-12-14T03:34:53.760Z,62.14
2022-12-14T03:39:56.311Z,62.43
2022-12-14T03:45:17.665Z,62.36
2022-12-14T03:50:33.171Z,61.98
2022-12-14T03:56:02.995Z,62.82
2022-12-14T04:01:35.440Z,63.19
2022-12-14T04:06:49.665Z,64.24
2022-12-14T04:12:17.490Z,64.40
2022-12-14T04:17:44.276Z,65.49
2022-12-14T04:22:52.678Z,65.28
2022-12-14T04:27:57.703Z,65.61
2022-12-14T04:33:26.923Z,66.22
2022-12-14T04:38:36.424Z,66.39
2022-12-14T04:43:42.878Z,66.67
2022-12-14T04:48:45.030Z,67.61
2022-12-14T04:53:52.785Z,67.42
2022-12-14T04:58:55.381Z,67.92
2022-12-14T05:04:22.594Z,67.67
2022-12-14T05:09:42.578Z,67.57
2022-12-14T05:14:51.389Z,68.48
2022-12-14T05:19:54.763Z,68.10
2022-12-14T05:24:57.037Z,68.39
2022-12-14T05:29:59.315Z,68.64
2022-12-14T05:35:02.665Z,68.46
2022-12-14T05:40:05.394Z,68.64
2022-12-14T05:45:08.566Z,68.37
2022-12-14T05:50:12.336Z,68.94
2022-12-14T05:55:14.545Z,68.92
2022-12-14T06:00:17.008Z,68.96
2022-12-14T06:05:19.683Z,69.70
2022-12-14T06:10:21.903Z,69.42
2022-12-14T06:15:27.188Z,69.39
2022-12-14T06:20:31.882Z,69.11
2022-12-14T06:25:34.164Z,68.80
2022-12-14T06:30:36.400Z,68.89
2022-12-14T06:35:45.924Z,67.76
2022-12-14T06:40:48.393Z,68.25
2022-12-14T06:45:50.676Z,67.46
2022-12-14T06:50:52.967Z,67.16
2022-12-14T06:55:55.221Z,67.07
2022-12-14T07:01:01.321Z,66.55
2022-12-14T07:06:04.737Z,66.51
2022-12-14T07:11:09.760Z,66.30
2022-12-14T07:16:26.418Z,66.20
2022-12-14T07:21:28.684Z,65.99
2022-12-14T07:26:31.234Z,66.32
2022-12-14T07:31:33.588Z,66.17
2022-12-14T07:36:35.912Z,66.00
2022-12-14T07:41:38.180Z,65.36
2022-12-14T07:46:41.528Z,65.73
2022-12-14T07:51:44.759Z,65.45
2022-12-14T07:56:47.090Z,65.68
2022-12-14T08:01:49.661Z,65.65
2022-12-14T08:06:52.061Z,65.54
2022-12-14T08:11:54.325Z,65.74
2022-12-14T08:16:56.557Z,65.81
2022-12-14T08:21:58.779Z,65.94
2022-12-14T08:27:00.981Z,66.04
2022-12-14T08:32:03.198Z,66.40
2022-12-14T08:37:05.419Z,65.95
2022-12-14T08:42:07.733Z,65.89
2022-12-14T08:47:09.974Z,66.25
2022-12-14T08:52:15.149Z,65.85
2022-12-14T08:57:17.361Z,65.85
2022-12-14T09:02:19.677Z,65.60
2022-12-14T09:07:22.099Z,65.73
2022-12-14T09:12:24.420Z,65.40
2022-12-14T09:17:26.675Z,65.35
2022-12-14T09:22:29.214Z,65.72
2022-12-14T09:27:31.546Z,65.62
2022-12-14T09:32:33.856Z,65.48
2022-12-14T09:37:36.546Z,65.42
2022-12-14T09:42:51.480Z,65.64
2022-12-14T09:48:12.747Z,65.34
2022-12-14T09:53:16.682Z,65.54
2022-12-14T09:58:24.215Z,65.70
2022-12-14T10:03:43.661Z,65.46
2022-12-14T10:08:57.468Z,65.47
2022-12-14T10:14:38.325Z,65.52
2022-12-14T10:19:58.028Z,65.43
2022-12-14T10:25:24.829Z,65.39
2022-12-14T10:30:27.228Z,65.48
2022-12-14T10:35:38.790Z,65.55
2022-12-14T10:40:49.784Z,65.41
2022-12-14T10:46:14.784Z,65.43
2022-12-14T10:51:31.288Z,65.59
2022-12-14T10:56:37.070Z,65.62
2022-12-14T11:01:39.461Z,65.65
2022-12-14T11:06:41.850Z,65.65
2022-12-14T11:11:46.196Z,66.04
2022-12-14T11:16:51.034Z,66.09
2022-12-14T11:22:20.284Z,66.14
2022-12-14T11:27:24.398Z,66.20
2022-12-14T11:32:26.697Z,66.50
2022-12-14T11:37:33.131Z,66.43
2022-12-14T11:42:37.493Z,66.61
2022-12-14T11:47:39.973Z,66.67
2022-12-14T11:52:43.443Z,66.77
2022-12-14T11:57:55.874Z,66.72
2022-12-14T12:03:04.047Z,66.65
2022-12-14T12:08:16.329Z,67.02
2022-12-14T12:13:32.962Z,66.90
2022-12-14T12:18:46.226Z,66.94
2022-12-14T12:24:07.582Z,66.81
2022-12-14T12:29:30.765Z,66.95
2022-12-14T12:34:39.074Z,67.22
2022-12-14T12:39:46.248Z,67.13
2022-12-14T12:45:02.818Z,67.06
2022-12-14T12:50:13.971Z,67.15
2022-12-14T12:55:20.306Z,66.99
2022-12-14T13:00:27.771Z,67.23
2022-12-14T13:05:48.644Z,67.21
2022-12-14T13:16:26.190Z,67.14
2022-12-14T13:21:35.741Z,67.08
2022-12-14T13:27:03.175Z,67.40
2022-12-14T13:32:33.786Z,67.05
2022-12-14T13:37:59.322Z,67.10
2022-12-14T13:43:17.157Z,67.25
2022-12-14T13:48:34.718Z,67.48
2022-12-14T13:53:50.034Z,67.68
2022-12-14T13:58:55.019Z,67.66
2022-12-14T14:04:43.808Z,68.09
2022-12-14T14:10:05.134Z,67.98
2022-12-14T14:15:52.006Z,67.85
2022-12-14T14:21:13.191Z,68.15
2022-12-14T14:26:33.993Z,68.21
2022-12-14T14:32:02.565Z,68.28
2022-12-14T14:37:28.018Z,68.45
2022-12-14T14:42:35.922Z,68.27
2022-12-14T14:47:40.449Z,68.46
2022-12-14T14:52:42.688Z,68.66
2022-12-14T14:58:01.781Z,68.41
2022-12-14T15:03:06.937Z,68.59
2022-12-14T15:08:38.566Z,68.72
2022-12-14T15:13:49.775Z,68.69
2022-12-14T15:18:52.124Z,69.24
2022-12-14T15:23:56.739Z,69.23
2022-12-14T15:29:00.984Z,69.69
2022-12-14T15:34:04.052Z,69.88
2022-12-14T15:39:06.789Z,69.92
2022-12-14T15:44:21.867Z,69.98
2022-12-14T15:49:27.332Z,70.19
2022-12-14T15:54:29.704Z,70.72
2022-12-14T15:59:35.567Z,70.84
2022-12-14T16:04:38.443Z,71.05
2022-12-14T16:09:50.393Z,71.02
2022-12-14T16:15:00.470Z,71.18
2022-12-14T16:20:21.857Z,71.32
2022-12-14T16:25:24.211Z,71.43
2022-12-14T16:30:30.490Z,71.36
2022-12-14T16:35:35.896Z,71.53
2022-12-14T16:40:59.935Z,71.43
2022-12-14T16:46:04.990Z,71.44
2022-12-14T16:52:04.969Z,71.49
2022-12-14T16:56:59.139Z,71.44
2022-12-14T17:02:01.535Z,71.53
2022-12-14T17:07:05.416Z,71.73
2022-12-14T17:12:15.167Z,71.75
2022-12-14T17:17:25.446Z,71.46
2022-12-14T17:22:30.693Z,71.62
2022-12-14T17:27:32.969Z,71.46
2022-12-14T17:32:38.285Z,71.51
2022-12-14T17:37:40.516Z,71.22
2022-12-14T17:42:52.505Z,71.69
2022-12-14T17:47:55.554Z,71.52
2022-12-14T17:52:57.817Z,71.86
2022-12-14T17:58:00.785Z,71.60
2022-12-14T18:03:04.898Z,71.64
2022-12-14T18:08:07.363Z,71.95
2022-12-14T18:13:11.967Z,71.72
2022-12-14T18:18:15.383Z,71.76
2022-12-14T18:23:19.040Z,71.67
2022-12-14T18:28:22.196Z,72.20
2022-12-14T18:33:27.646Z,71.94
2022-12-14T18:38:30.153Z,71.97
2022-12-14T18:43:33.345Z,72.10
2022-12-14T18:48:36.666Z,72.02
2022-12-14T18:53:39.331Z,71.87
2022-12-14T18:58:42.448Z,71.98
2022-12-14T19:03:45.677Z,71.83
2022-12-14T19:08:49.689Z,71.75
2022-12-14T19:13:52.175Z,71.78
2022-12-14T19:18:54.590Z,71.57
2022-12-14T19:23:56.965Z,71.48
2022-12-14T19:28:59.274Z,71.72
2022-12-14T19:34:01.845Z,71.81
2022-12-14T19:39:05.027Z,71.54
2022-12-14T19:44:07.526Z,71.99
2022-12-14T19:49:13.307Z,72.03
2022-12-14T19:54:15.746Z,72.32
2022-12-14T19:59:18.775Z,72.28
2022-12-14T20:04:21.477Z,72.42
2022-12-14T20:09:23.842Z,72.61
2022-12-14T20:14:26.900Z,72.66
2022-12-14T20:19:29.293Z,72.31
2022-12-14T20:24:31.978Z,72.39
2022-12-14T20:29:34.414Z,72.47
2022-12-14T20:34:39.599Z,72.01
2022-12-14T20:39:42.176Z,72.42
2022-12-14T20:44:44.542Z,72.40
2022-12-14T20:49:52.256Z,72.49
2022-12-14T20:54:54.610Z,72.58
2022-12-14T20:59:59.393Z,72.29
2022-12-14T21:05:02.167Z,72.23
2022-12-14T21:10:08.203Z,72.70
2022-12-14T21:15:10.754Z,72.44
2022-12-14T21:20:13.650Z,72.60
2022-12-14T21:25:16.107Z,72.79
2022-12-14T21:30:19.002Z,72.78
2022-12-14T21:35:21.332Z,72.60
2022-12-14T21:40:42.366Z,72.73
2022-12-14T21:45:46.191Z,72.54
2022-12-14T21:50:48.550Z,72.89
2022-12-14T21:55:52.261Z,72.76
2022-12-14T22:00:54.566Z,72.84
2022-12-14T22:05:57.205Z,72.63
2022-12-14T22:11:03.372Z,73.03
2022-12-14T22:16:08.534Z,72.83
2022-12-14T22:21:10.726Z,72.92
2022-12-14T22:26:12.984Z,72.83
2022-12-14T22:31:15.292Z,72.89
2022-12-14T22:36:18.651Z,72.97
2022-12-14T22:41:21.163Z,73.02
2022-12-14T22:46:25.254Z,73.13
2022-12-14T22:51:29.559Z,72.98
2022-12-14T22:56:34.539Z,73.04
2022-12-14T23:01:37.972Z,73.15
2022-12-14T23:06:41.830Z,73.14
2022-12-14T23:12:02.619Z,73.14
2022-12-14T23:17:24.522Z,73.59
2022-12-14T23:22:45.925Z,73.21
2022-12-14T23:28:10.605Z,73.01
2022-12-14T23:33:31.580Z,72.99
2022-12-14T23:38:52.896Z,73.48
2022-12-14T23:44:13.788Z,73.19
2022-12-14T23:49:34.807Z,73.17
2022-12-14T23:54:55.546Z,73.40
